Fulton, Pennsylvania
Current Conditions -  °F | °C
As of 3:50 PM on Tuesday 25 Nov 2014 (Local Time) from KAPG Reporting Station
Broken Clouds Broken Clouds  
Wind Chill: 55°   Ceiling: 7000
Heat Index: 55°   Visibility: 7mi
Dew Point: 34°   Wind: 5mph
Humidity: 44%   Direction: 270°W
Pressure: 30.04"   Gusts: NA
Location:  39.7675°N, 76.1818°W
Report Text: KAPG 252050Z 27004KT 7SM BKN070 BKN150 13/01 A3004
Loading
Personal Weather Stations






























Interactive Weather Map New forecast layout! Learn more

10-Day Weather Forecast

Advertisements
Track Severe Weather on mobile